createdAt,value
2019-01-27T00:01:58.345Z,96068.66
2019-01-27T00:07:15.906Z,96062.09
2019-01-27T00:12:33.260Z,96049.00
2019-01-27T00:17:50.699Z,96040.88
2019-01-27T00:23:10.131Z,96037.89
2019-01-27T00:28:28.041Z,96029.81
2019-01-27T00:33:46.171Z,96020.68
2019-01-27T00:39:05.265Z,96018.91
2019-01-27T00:44:22.912Z,96016.88
2019-01-27T00:49:40.673Z,96006.52
2019-01-27T00:54:58.197Z,96002.43
2019-01-27T01:00:18.020Z,95989.58
2019-01-27T01:05:35.125Z,95985.66
2019-01-27T01:10:52.566Z,95976.08
2019-01-27T01:16:10.113Z,95969.09
2019-01-27T01:21:28.574Z,95957.55
2019-01-27T01:26:46.220Z,95947.09
2019-01-27T01:32:03.559Z,95941.44
2019-01-27T01:37:21.374Z,95930.81
2019-01-27T01:42:39.056Z,95920.17
2019-01-27T01:47:57.115Z,95917.42
2019-01-27T01:53:14.653Z,95914.70
2019-01-27T01:58:32.361Z,95904.36
2019-01-27T02:03:50.025Z,95890.66
2019-01-27T02:09:09.147Z,95891.05
2019-01-27T02:14:27.782Z,95884.86
2019-01-27T02:19:45.393Z,95880.58
2019-01-27T02:25:03.078Z,95866.88
2019-01-27T02:30:21.492Z,95858.17
2019-01-27T02:35:39.349Z,95851.00
2019-01-27T02:40:56.783Z,95840.94
2019-01-27T02:46:15.057Z,95824.06
2019-01-27T02:51:33.303Z,95818.83
2019-01-27T02:56:50.885Z,95803.22
2019-01-27T03:02:08.696Z,95796.72
2019-01-27T03:07:31.828Z,95789.27
2019-01-27T03:12:49.163Z,95788.65
2019-01-27T03:18:06.849Z,95776.58
2019-01-27T03:23:24.580Z,95770.12
2019-01-27T03:28:43.130Z,95761.28
2019-01-27T03:34:00.768Z,95758.84
2019-01-27T03:39:18.682Z,95761.38
2019-01-27T03:44:35.922Z,95750.52
2019-01-27T03:49:54.828Z,95752.21
2019-01-27T03:55:13.777Z,95753.69
2019-01-27T04:00:31.253Z,95752.27
2019-01-27T04:05:48.927Z,95746.70
2019-01-27T04:11:07.279Z,95736.53
2019-01-27T04:16:24.829Z,95726.66
2019-01-27T04:21:43.413Z,95720.95
2019-01-27T04:27:00.579Z,95718.05
2019-01-27T04:32:18.317Z,95716.77
2019-01-27T04:37:35.965Z,95702.31
2019-01-27T04:42:54.271Z,95708.95
2019-01-27T04:48:11.808Z,95699.94
2019-01-27T04:53:28.891Z,95698.38
2019-01-27T04:58:48.282Z,95697.02
2019-01-27T05:04:13.861Z,95685.00
2019-01-27T05:09:31.991Z,95669.56
2019-01-27T05:14:49.890Z,95675.39
2019-01-27T05:20:07.965Z,95674.25
2019-01-27T05:25:25.700Z,95667.74
2019-01-27T05:30:43.692Z,95657.70
2019-01-27T05:36:01.683Z,95648.22
2019-01-27T05:41:19.812Z,95642.52
2019-01-27T05:46:38.367Z,95625.02
2019-01-27T05:51:57.539Z,95624.83
2019-01-27T05:57:15.328Z,95616.23
2019-01-27T06:02:32.982Z,95602.81
2019-01-27T06:07:50.553Z,95606.58
2019-01-27T06:13:08.663Z,95602.58
2019-01-27T06:18:26.526Z,95601.98
2019-01-27T06:23:44.324Z,95586.45
2019-01-27T06:29:01.851Z,95584.77
2019-01-27T06:34:21.641Z,95567.70
2019-01-27T06:39:38.856Z,95562.60
2019-01-27T06:44:56.021Z,95547.98
2019-01-27T06:50:14.795Z,95542.84
2019-01-27T06:55:32.627Z,95549.01
2019-01-27T07:00:55.030Z,95545.42
2019-01-27T07:06:41.369Z,95532.28
2019-01-27T07:12:07.233Z,95521.66
2019-01-27T07:17:58.688Z,95506.06
2019-01-27T07:23:41.242Z,95503.21
2019-01-27T07:29:07.813Z,95497.98
2019-01-27T07:34:50.812Z,95476.06
2019-01-27T07:40:31.287Z,95477.35
2019-01-27T07:45:57.951Z,95467.03
2019-01-27T07:51:32.984Z,95465.70
2019-01-27T07:57:18.417Z,95465.02
2019-01-27T08:02:50.985Z,95447.17
2019-01-27T08:08:37.236Z,95452.56
2019-01-27T08:14:17.213Z,95434.81
2019-01-27T08:19:41.637Z,95441.71
2019-01-27T08:25:30.111Z,95448.52
2019-01-27T08:31:09.460Z,95450.71
2019-01-27T08:36:33.729Z,95446.06
2019-01-27T08:42:19.447Z,95451.87
2019-01-27T08:47:36.931Z,95440.97
2019-01-27T08:52:55.068Z,95441.95
2019-01-27T08:58:13.387Z,95436.08
2019-01-27T09:03:47.631Z,95430.03
2019-01-27T09:09:29.647Z,95437.28
2019-01-27T09:15:15.671Z,95431.20
2019-01-27T09:20:51.876Z,95436.08
2019-01-27T09:26:27.254Z,95442.23
2019-01-27T09:32:01.964Z,95433.45
2019-01-27T09:37:37.506Z,95425.31
2019-01-27T09:43:32.452Z,95433.32
2019-01-27T09:48:57.096Z,95430.79
2019-01-27T09:54:42.491Z,95419.09
2019-01-27T10:00:33.675Z,95403.75
2019-01-27T10:06:14.336Z,95395.41
2019-01-27T10:12:00.349Z,95390.45
2019-01-27T10:17:49.028Z,95379.22
2019-01-27T10:23:33.780Z,95368.92
2019-01-27T10:29:15.412Z,95368.06
2019-01-27T10:35:22.123Z,95357.59
2019-01-27T10:41:12.709Z,95351.70
2019-01-27T10:47:04.726Z,95325.06
2019-01-27T10:52:33.543Z,95309.57
2019-01-27T10:58:02.868Z,95296.14
2019-01-27T11:03:42.107Z,95282.64
2019-01-27T11:09:17.850Z,95267.22
2019-01-27T11:14:54.329Z,95269.19
2019-01-27T11:20:40.640Z,95253.89
2019-01-27T11:26:26.717Z,95251.60
2019-01-27T11:32:13.367Z,95229.13
2019-01-27T11:37:48.074Z,95220.75
2019-01-27T11:43:27.799Z,95209.50
2019-01-27T11:48:53.606Z,95199.61
2019-01-27T11:54:12.222Z,95181.27
2019-01-27T11:59:30.802Z,95167.16
2019-01-27T12:04:48.250Z,95180.51
2019-01-27T12:10:08.442Z,95162.82
2019-01-27T12:15:26.863Z,95150.14
2019-01-27T12:20:44.789Z,95144.22
2019-01-27T12:26:02.067Z,95143.91
2019-01-27T12:31:20.567Z,95136.84
2019-01-27T12:36:38.839Z,95119.10
2019-01-27T12:41:56.654Z,95097.61
2019-01-27T12:47:14.419Z,95097.61
2019-01-27T12:52:31.703Z,95101.22
2019-01-27T12:57:49.705Z,95114.59
2019-01-27T13:03:07.562Z,95102.53
2019-01-27T13:08:25.975Z,95095.80
2019-01-27T13:13:43.379Z,95102.98
2019-01-27T13:19:02.288Z,95094.67
2019-01-27T13:24:20.351Z,95074.89
2019-01-27T13:29:38.805Z,95068.76
2019-01-27T13:34:56.485Z,95059.27
2019-01-27T13:40:15.739Z,95065.80
2019-01-27T13:45:33.645Z,95062.30
2019-01-27T13:50:53.338Z,95062.03
2019-01-27T13:56:10.053Z,95064.81
2019-01-27T14:01:27.817Z,95071.73
2019-01-27T14:06:45.739Z,95077.63
2019-01-27T14:12:03.757Z,95080.72
2019-01-27T14:17:23.908Z,95088.19
2019-01-27T14:22:42.509Z,95086.52
2019-01-27T14:28:00.336Z,95090.36
2019-01-27T14:33:18.186Z,95082.12
2019-01-27T14:38:35.638Z,95070.48
2019-01-27T14:43:54.645Z,95071.62
2019-01-27T14:49:12.408Z,95065.23
2019-01-27T14:54:30.474Z,95073.73
2019-01-27T14:59:48.167Z,95073.47
2019-01-27T15:05:06.819Z,95060.45
2019-01-27T15:10:24.518Z,95060.79
2019-01-27T15:15:42.249Z,95053.20
2019-01-27T15:21:02.001Z,95055.52
2019-01-27T15:26:20.432Z,95060.41
2019-01-27T15:31:37.875Z,95060.86
2019-01-27T15:36:56.511Z,95068.84
2019-01-27T15:42:14.645Z,95072.67
2019-01-27T15:47:32.244Z,95068.16
2019-01-27T15:52:50.073Z,95061.81
2019-01-27T15:58:07.845Z,95057.02
2019-01-27T16:03:25.333Z,95054.00
2019-01-27T16:08:42.972Z,95062.13
2019-01-27T16:14:01.151Z,95059.19
2019-01-27T16:19:19.745Z,95038.86
2019-01-27T16:24:39.059Z,95055.19
2019-01-27T16:30:10.322Z,95047.75
2019-01-27T16:35:28.854Z,95030.95
2019-01-27T16:40:46.497Z,95034.46
2019-01-27T16:46:04.446Z,95045.68
2019-01-27T16:51:27.710Z,95039.88
2019-01-27T16:56:45.267Z,95044.89
2019-01-27T17:02:02.840Z,95044.97
2019-01-27T17:07:21.386Z,95039.71
2019-01-27T17:12:44.246Z,95039.05
2019-01-27T17:18:01.657Z,95032.48
2019-01-27T17:23:20.145Z,95034.11
2019-01-27T17:28:37.589Z,95033.19
2019-01-27T17:33:55.222Z,95028.83
2019-01-27T17:39:13.999Z,95034.62
2019-01-27T17:44:32.363Z,95035.09
2019-01-27T17:49:50.654Z,95048.50
2019-01-27T17:55:09.786Z,95042.89
2019-01-27T18:00:56.186Z,95048.95
2019-01-27T18:06:19.950Z,95049.00
2019-01-27T18:11:51.880Z,95052.22
2019-01-27T18:17:09.922Z,95040.92
2019-01-27T18:22:29.307Z,95042.56
2019-01-27T18:27:47.196Z,95046.13
2019-01-27T18:33:05.301Z,95044.03
2019-01-27T18:38:23.168Z,95044.03
2019-01-27T18:43:42.461Z,95034.76
2019-01-27T18:49:00.375Z,95025.73
2019-01-27T18:54:43.095Z,95029.29
2019-01-27T19:00:19.446Z,95027.67
2019-01-27T19:05:53.952Z,95029.47
2019-01-27T19:11:29.631Z,95023.18
2019-01-27T19:17:06.855Z,95018.67
2019-01-27T19:22:41.647Z,95021.27
2019-01-27T19:28:05.779Z,95018.52
2019-01-27T19:33:44.620Z,95020.29
2019-01-27T19:39:21.279Z,95013.22
2019-01-27T19:44:56.619Z,95007.06
2019-01-27T19:50:33.429Z,94998.67
2019-01-27T19:56:08.499Z,95003.52
2019-01-27T20:01:45.453Z,94998.69
2019-01-27T20:07:25.147Z,94993.48
2019-01-27T20:13:17.499Z,94983.81
2019-01-27T20:19:10.308Z,94974.41
2019-01-27T20:24:38.317Z,94962.94
2019-01-27T20:30:17.017Z,94965.44
2019-01-27T20:35:55.555Z,94973.94
2019-01-27T20:41:21.986Z,94970.01
2019-01-27T20:47:01.725Z,94959.59
2019-01-27T20:52:41.350Z,94955.50
2019-01-27T20:58:20.175Z,94950.16
2019-01-27T21:03:52.673Z,94944.69
2019-01-27T21:09:24.663Z,94945.94
2019-01-27T21:15:10.170Z,94959.16
2019-01-27T21:20:27.784Z,94953.23
2019-01-27T21:25:45.659Z,94968.02
2019-01-27T21:31:03.690Z,94960.80
2019-01-27T21:36:21.962Z,94961.78
2019-01-27T21:41:40.694Z,94967.95
2019-01-27T21:46:58.791Z,94958.19
2019-01-27T21:52:16.714Z,94953.04
2019-01-27T21:57:34.403Z,94949.39
2019-01-27T22:02:52.968Z,94942.98
2019-01-27T22:08:10.731Z,94939.62
2019-01-27T22:13:28.589Z,94934.19
2019-01-27T22:18:46.635Z,94914.61
2019-01-27T22:24:04.050Z,94914.48
2019-01-27T22:29:22.049Z,94921.42
2019-01-27T22:34:39.562Z,94924.02
2019-01-27T22:39:57.709Z,94932.70
2019-01-27T22:45:15.467Z,94937.98
2019-01-27T22:50:33.509Z,94948.48
2019-01-27T22:55:51.448Z,94958.84
2019-01-27T23:01:13.679Z,94954.81
2019-01-27T23:06:31.451Z,94940.80
2019-01-27T23:11:49.689Z,94933.28
2019-01-27T23:17:08.528Z,94935.70
2019-01-27T23:22:26.079Z,94921.67
2019-01-27T23:27:44.283Z,94898.98
2019-01-27T23:33:01.605Z,94903.33
2019-01-27T23:38:19.691Z,94903.82
2019-01-27T23:43:37.645Z,94886.40
2019-01-27T23:48:55.658Z,94873.16
2019-01-27T23:54:13.269Z,94855.45
2019-01-27T23:59:31.591Z,94853.85
